Saturday, September 20, 2014
20:09 UTC
  |  Log In   |  Register Free
Airport Search:

Firelands Community Hospital Nr 2 Airport
(OI87)

Firelands Community Hospital Nr 2 Airport Diagram
No Airport Diagram Available

FAA data valid effective September 18, 2014 - November 13, 2014 (unless otherwise noted).

 
 
 
 
 
 
 
 
 
 
 
 
 
 

Current Aviation Weather for Firelands Community Hospital Nr 2 Airport (OI87)

METAR data is unavailable for OI87. The nearest METAR location is at KPCW (8.2 nm NW from OI87).

The most recent METAR observation for KPCW was updated at: 1911
METAR Summary (Translated METAR)
KPCW
201853Z AUTO 22012KT 10SM CLR 28/16 A2988 RMK AO2 T02770161 $
(8.2 nm NW from OI87)
KLPR
201853Z AUTO 22021G27KT 10SM CLR 28/16 A2994 RMK AO2 PK WND 22028/1813 SLP133 T02780156 TSNO
(24.8 nm SE from OI87)
TAF
No TAF information found within 50 nm of KLPR
  Airport Weather Conditions for OI87

Current weather conditions are
not available for OI87


The nearest NOAA weather station
is at LPR, (24.8 nm SE from OI87)
  
 Current Weather at LPR
81° F
A Few Clouds and Breezy
Southwest winds at 20.7 mph
LPR NOAA Radar

Pressure: 29.97 in
Humidity: 49%
Wind: from the Southwest at 20.7 gusting to 29.9 MPH (18 gusting to 26 KT)
Dew Point: 60.1°F
Visibility: 10.00 mi


Airport Weather Forecast for OI87

Translated METAR and TAF for KLPR
Translated METAR for KLPR (2003 UTC 20 September 2014)
found at http://aviationweather.gov/adds/metars/
 
METAR text: KLPR 201953Z AUTO 21016G21KT 10SM CLR 28/16 A2992 RMK AO2 PK WND 22026/1900 SLP125 T02830161 TSNO
Conditions at: KLPR (LORAIN/ELYRIA , OH, US) observed 1953 UTC 20 September 2014
Temperature: 28.3°C (83°F)
Dewpoint: 16.1°C (61°F) [RH = 48%]
Pressure (altimeter): 29.92 inches Hg (1013.3 mb)
[Sea-level pressure: 1012.5 mb]
Winds: from the SSW (210 degrees) at 18 MPH (16 knots; 8.3 m/s)
gusting to 24 MPH (21 knots; 10.9 m/s)
Visibility: 10 or more miles (16+ km)
Ceiling: at least 12,000 feet AGL
Clouds: sky clear below 12,000 feet AGL
Weather: automated observation with no human augmentation;
there may or may not be significant weather present at this time
Translated TAF for KLPR

There is no translated TAF available for this airport

Find All Airport Services Find A Hotel Find A Rental Car Find A Golf Course Find A Restaurant $100 Hamburger



FBO's on the Field
FBO Company Facility Photos Services Transportation Aviation Fuel Prices: Prices include tax
Catering Weather Repair Courtesy Rental Type 100LL JetA JetA+ MOGAS 8087
 
Add another FBO Facility Photos Catering Weather Repair Courtesy Rental Type 100LL JetA JetA+ MOGAS 8087
Services Transportation Aviation Fuel Prices: Prices include tax
There are no FBO's currently reporting fuel at OI87. List your FBO now


model-print
model-print
model-print
model-print